sensor_id;sensor_type;location;lat;lon;timestamp;pressure;altitude;pressure_sealevel;temperature;humidity
47742;BME280;33504;52.066;6.096;2023-05-31T00:01:01;102612.38;;;15.53;43.06
47742;BME280;33504;52.066;6.096;2023-05-31T00:03:28;102611.85;;;15.49;43.01
47742;BME280;33504;52.066;6.096;2023-05-31T00:05:54;102612.43;;;15.66;43.10
47742;BME280;33504;52.066;6.096;2023-05-31T00:08:21;102613.39;;;15.61;43.09
47742;BME280;33504;52.066;6.096;2023-05-31T00:10:48;102614.36;;;15.31;43.30
47742;BME280;33504;52.066;6.096;2023-05-31T00:13:15;102614.05;;;15.50;43.28
47742;BME280;33504;52.066;6.096;2023-05-31T00:15:41;102610.27;;;14.93;43.48
47742;BME280;33504;52.066;6.096;2023-05-31T00:18:08;102604.97;;;15.46;43.26
47742;BME280;33504;52.066;6.096;2023-05-31T00:20:35;102601.32;;;15.46;43.26
47742;BME280;33504;52.066;6.096;2023-05-31T00:23:02;102599.04;;;15.44;43.29
47742;BME280;33504;52.066;6.096;2023-05-31T00:25:29;102603.88;;;15.40;43.24
47742;BME280;33504;52.066;6.096;2023-05-31T00:27:56;102599.93;;;15.08;43.42
47742;BME280;33504;52.066;6.096;2023-05-31T00:30:23;102604.54;;;15.28;43.53
47742;BME280;33504;52.066;6.096;2023-05-31T00:32:49;102608.01;;;15.27;43.50
47742;BME280;33504;52.066;6.096;2023-05-31T00:35:16;102609.31;;;15.46;43.53
47742;BME280;33504;52.066;6.096;2023-05-31T00:37:43;102611.88;;;15.20;43.61
47742;BME280;33504;52.066;6.096;2023-05-31T00:40:11;102609.58;;;15.17;43.57
47742;BME280;33504;52.066;6.096;2023-05-31T00:42:38;102609.60;;;15.10;43.73
47742;BME280;33504;52.066;6.096;2023-05-31T00:45:06;102608.29;;;15.08;43.80
47742;BME280;33504;52.066;6.096;2023-05-31T00:47:34;102614.57;;;15.10;43.73
47742;BME280;33504;52.066;6.096;2023-05-31T00:50:02;102613.48;;;14.78;43.86
47742;BME280;33504;52.066;6.096;2023-05-31T00:52:29;102615.91;;;15.03;43.83
47742;BME280;33504;52.066;6.096;2023-05-31T00:54:57;102617.61;;;15.01;43.96
47742;BME280;33504;52.066;6.096;2023-05-31T00:57:25;102617.03;;;14.83;43.82
47742;BME280;33504;52.066;6.096;2023-05-31T00:59:52;102617.31;;;15.03;43.93
47742;BME280;33504;52.066;6.096;2023-05-31T01:02:19;102616.56;;;15.03;43.86
47742;BME280;33504;52.066;6.096;2023-05-31T01:04:45;102615.32;;;14.99;43.82
47742;BME280;33504;52.066;6.096;2023-05-31T01:07:13;102611.33;;;14.94;43.84
47742;BME280;33504;52.066;6.096;2023-05-31T01:09:40;102612.56;;;14.89;43.86
47742;BME280;33504;52.066;6.096;2023-05-31T01:12:16;102610.90;;;14.88;43.95
47742;BME280;33504;52.066;6.096;2023-05-31T01:14:56;102612.54;;;15.07;43.95
47742;BME280;33504;52.066;6.096;2023-05-31T01:17:30;102616.57;;;14.76;44.15
47742;BME280;33504;52.066;6.096;2023-05-31T01:20:01;102619.51;;;14.75;44.07
47742;BME280;33504;52.066;6.096;2023-05-31T01:22:42;102617.83;;;14.77;43.97
47742;BME280;33504;52.066;6.096;2023-05-31T01:25:24;102621.69;;;14.71;44.02
47742;BME280;33504;52.066;6.096;2023-05-31T01:27:53;102623.64;;;14.69;44.12
47742;BME280;33504;52.066;6.096;2023-05-31T01:30:21;102617.82;;;14.71;43.99
47742;BME280;33504;52.066;6.096;2023-05-31T01:32:49;102615.80;;;14.70;44.06
47742;BME280;33504;52.066;6.096;2023-05-31T01:35:18;102618.73;;;14.64;44.16
47742;BME280;33504;52.066;6.096;2023-05-31T01:37:44;102619.74;;;14.66;44.07
47742;BME280;33504;52.066;6.096;2023-05-31T01:40:13;102620.78;;;14.59;44.16
47742;BME280;33504;52.066;6.096;2023-05-31T01:42:41;102621.01;;;14.81;44.18
47742;BME280;33504;52.066;6.096;2023-05-31T01:45:10;102616.91;;;14.49;44.36
47742;BME280;33504;52.066;6.096;2023-05-31T01:47:38;102615.22;;;14.71;44.19
47742;BME280;33504;52.066;6.096;2023-05-31T01:50:07;102611.30;;;14.48;44.32
47742;BME280;33504;52.066;6.096;2023-05-31T01:52:34;102615.88;;;14.97;44.25
47742;BME280;33504;52.066;6.096;2023-05-31T01:55:03;102611.53;;;14.40;44.26
47742;BME280;33504;52.066;6.096;2023-05-31T01:57:32;102612.32;;;14.38;44.32
47742;BME280;33504;52.066;6.096;2023-05-31T02:00:00;102615.67;;;14.55;44.34
47742;BME280;33504;52.066;6.096;2023-05-31T02:02:28;102619.63;;;14.52;44.41
47742;BME280;33504;52.066;6.096;2023-05-31T02:05:04;102620.23;;;14.50;44.43
47742;BME280;33504;52.066;6.096;2023-05-31T02:07:31;102616.39;;;14.73;44.55
47742;BME280;33504;52.066;6.096;2023-05-31T02:09:58;102614.37;;;14.46;44.57
47742;BME280;33504;52.066;6.096;2023-05-31T02:12:25;102614.36;;;14.24;44.49
47742;BME280;33504;52.066;6.096;2023-05-31T02:14:52;102612.59;;;14.46;44.52
47742;BME280;33504;52.066;6.096;2023-05-31T02:17:19;102605.38;;;14.44;44.58
47742;BME280;33504;52.066;6.096;2023-05-31T02:19:45;102607.78;;;14.19;44.53
47742;BME280;33504;52.066;6.096;2023-05-31T02:22:13;102609.87;;;14.67;44.59
47742;BME280;33504;52.066;6.096;2023-05-31T02:24:40;102609.86;;;14.36;44.68
47742;BME280;33504;52.066;6.096;2023-05-31T02:27:07;102611.89;;;14.33;44.72
47742;BME280;33504;52.066;6.096;2023-05-31T02:29:34;102611.82;;;14.32;44.71
47742;BME280;33504;52.066;6.096;2023-05-31T02:32:01;102610.81;;;14.07;44.67
47742;BME280;33504;52.066;6.096;2023-05-31T02:34:28;102606.69;;;14.27;44.75
47742;BME280;33504;52.066;6.096;2023-05-31T02:36:55;102608.92;;;14.22;44.69
47742;BME280;33504;52.066;6.096;2023-05-31T02:39:21;102610.24;;;14.14;44.89
47742;BME280;33504;52.066;6.096;2023-05-31T02:41:49;102612.04;;;14.15;44.96
47742;BME280;33504;52.066;6.096;2023-05-31T02:44:16;102612.43;;;14.42;44.91
47742;BME280;33504;52.066;6.096;2023-05-31T02:46:42;102610.17;;;14.13;44.94
47742;BME280;33504;52.066;6.096;2023-05-31T02:49:09;102605.77;;;14.36;45.04
47742;BME280;33504;52.066;6.096;2023-05-31T02:51:36;102602.87;;;14.36;44.94
47742;BME280;33504;52.066;6.096;2023-05-31T02:54:03;102600.47;;;14.32;45.02
47742;BME280;33504;52.066;6.096;2023-05-31T02:56:30;102600.00;;;14.06;44.97
47742;BME280;33504;52.066;6.096;2023-05-31T02:58:57;102600.12;;;14.30;44.95
47742;BME280;33504;52.066;6.096;2023-05-31T03:01:24;102598.62;;;14.01;45.03
47742;BME280;33504;52.066;6.096;2023-05-31T03:03:51;102599.89;;;14.26;45.08
47742;BME280;33504;52.066;6.096;2023-05-31T03:06:18;102597.85;;;13.97;45.07
47742;BME280;33504;52.066;6.096;2023-05-31T03:08:45;102598.31;;;13.98;45.06
47742;BME280;33504;52.066;6.096;2023-05-31T03:11:12;102596.04;;;14.18;45.20
47742;BME280;33504;52.066;6.096;2023-05-31T03:13:39;102592.94;;;14.13;45.28
47742;BME280;33504;52.066;6.096;2023-05-31T03:16:06;102587.19;;;14.13;45.23
47742;BME280;33504;52.066;6.096;2023-05-31T03:18:34;102583.99;;;13.82;45.25
47742;BME280;33504;52.066;6.096;2023-05-31T03:21:01;102586.13;;;14.08;45.22
47742;BME280;33504;52.066;6.096;2023-05-31T03:23:28;102585.98;;;14.08;45.07
47742;BME280;33504;52.066;6.096;2023-05-31T03:25:54;102586.30;;;14.05;45.05
47742;BME280;33504;52.066;6.096;2023-05-31T03:28:21;102590.18;;;14.02;45.09
47742;BME280;33504;52.066;6.096;2023-05-31T03:30:48;102588.81;;;13.72;45.12
47742;BME280;33504;52.066;6.096;2023-05-31T03:33:15;102586.18;;;13.95;45.29
47742;BME280;33504;52.066;6.096;2023-05-31T03:35:42;102593.18;;;13.90;45.28
47742;BME280;33504;52.066;6.096;2023-05-31T03:38:09;102600.01;;;13.86;45.35
47742;BME280;33504;52.066;6.096;2023-05-31T03:40:37;102599.63;;;13.84;45.47
47742;BME280;33504;52.066;6.096;2023-05-31T03:43:03;102600.44;;;13.58;45.37
47742;BME280;33504;52.066;6.096;2023-05-31T03:45:30;102598.35;;;13.80;45.55
47742;BME280;33504;52.066;6.096;2023-05-31T03:47:58;102602.10;;;13.56;45.52
47742;BME280;33504;52.066;6.096;2023-05-31T03:50:26;102604.50;;;13.53;45.51
47742;BME280;33504;52.066;6.096;2023-05-31T03:52:53;102604.62;;;13.78;45.57
47742;BME280;33504;52.066;6.096;2023-05-31T03:55:21;102610.76;;;13.74;45.67
47742;BME280;33504;52.066;6.096;2023-05-31T03:57:48;102607.90;;;13.76;45.63
47742;BME280;33504;52.066;6.096;2023-05-31T04:00:16;102610.41;;;13.72;45.67
47742;BME280;33504;52.066;6.096;2023-05-31T04:02:43;102610.23;;;13.72;45.79
47742;BME280;33504;52.066;6.096;2023-05-31T04:05:10;102611.15;;;13.44;45.77
47742;BME280;33504;52.066;6.096;2023-05-31T04:07:37;102606.68;;;13.70;45.27
47742;BME280;33504;52.066;6.096;2023-05-31T04:10:05;102606.73;;;13.67;44.97
47742;BME280;33504;52.066;6.096;2023-05-31T04:12:33;102612.61;;;13.60;44.76
47742;BME280;33504;52.066;6.096;2023-05-31T04:15:00;102619.26;;;13.57;44.27
47742;BME280;33504;52.066;6.096;2023-05-31T04:17:27;102624.49;;;13.58;44.68
47742;BME280;33504;52.066;6.096;2023-05-31T04:19:54;102620.65;;;13.21;45.23
47742;BME280;33504;52.066;6.096;2023-05-31T04:22:21;102621.54;;;13.51;45.27
47742;BME280;33504;52.066;6.096;2023-05-31T04:24:48;102618.84;;;13.45;45.78
47742;BME280;33504;52.066;6.096;2023-05-31T04:27:15;102622.18;;;13.57;46.10
47742;BME280;33504;52.066;6.096;2023-05-31T04:29:42;102628.58;;;13.66;46.29
47742;BME280;33504;52.066;6.096;2023-05-31T04:32:09;102630.07;;;13.72;46.19
47742;BME280;33504;52.066;6.096;2023-05-31T04:34:36;102625.93;;;13.72;46.51
47742;BME280;33504;52.066;6.096;2023-05-31T04:37:03;102622.59;;;13.82;46.53
47742;BME280;33504;52.066;6.096;2023-05-31T04:39:30;102617.67;;;13.82;46.44
47742;BME280;33504;52.066;6.096;2023-05-31T04:41:57;102619.71;;;13.92;46.37
47742;BME280;33504;52.066;6.096;2023-05-31T04:44:25;102617.05;;;13.98;46.35
47742;BME280;33504;52.066;6.096;2023-05-31T04:46:52;102611.25;;;13.94;46.43
47742;BME280;33504;52.066;6.096;2023-05-31T04:49:19;102611.55;;;14.11;46.11
47742;BME280;33504;52.066;6.096;2023-05-31T04:51:46;102612.00;;;13.81;46.20
47742;BME280;33504;52.066;6.096;2023-05-31T04:54:13;102616.88;;;13.88;46.10
47742;BME280;33504;52.066;6.096;2023-05-31T04:56:40;102615.24;;;14.22;46.20
47742;BME280;33504;52.066;6.096;2023-05-31T04:59:06;102618.17;;;14.30;46.16
47742;BME280;33504;52.066;6.096;2023-05-31T05:01:33;102612.09;;;14.12;46.15
47742;BME280;33504;52.066;6.096;2023-05-31T05:04:00;102618.48;;;14.17;46.08
47742;BME280;33504;52.066;6.096;2023-05-31T05:06:27;102618.09;;;14.24;46.06
47742;BME280;33504;52.066;6.096;2023-05-31T05:08:54;102615.55;;;14.33;45.93
47742;BME280;33504;52.066;6.096;2023-05-31T05:11:22;102620.97;;;14.39;46.04
47742;BME280;33504;52.066;6.096;2023-05-31T05:13:49;102626.92;;;14.73;45.99
47742;BME280;33504;52.066;6.096;2023-05-31T05:16:16;102625.75;;;14.72;46.31
47742;BME280;33504;52.066;6.096;2023-05-31T05:18:43;102622.51;;;14.54;46.17
47742;BME280;33504;52.066;6.096;2023-05-31T05:21:10;102621.84;;;14.64;46.04
47742;BME280;33504;52.066;6.096;2023-05-31T05:23:37;102623.53;;;14.81;46.44
47742;BME280;33504;52.066;6.096;2023-05-31T05:26:05;102627.02;;;14.44;46.30
47742;BME280;33504;52.066;6.096;2023-05-31T05:28:32;102625.71;;;14.55;46.14
47742;BME280;33504;52.066;6.096;2023-05-31T05:30:58;102620.54;;;14.57;46.20
47742;BME280;33504;52.066;6.096;2023-05-31T05:33:26;102618.52;;;14.53;46.43
47742;BME280;33504;52.066;6.096;2023-05-31T05:35:53;102620.25;;;14.74;46.22
47742;BME280;33504;52.066;6.096;2023-05-31T05:38:19;102617.20;;;14.88;46.14
47742;BME280;33504;52.066;6.096;2023-05-31T05:40:46;102613.75;;;14.95;46.09
47742;BME280;33504;52.066;6.096;2023-05-31T05:43:14;102617.09;;;15.09;46.03
47742;BME280;33504;52.066;6.096;2023-05-31T05:45:40;102617.22;;;15.23;45.77
47742;BME280;33504;52.066;6.096;2023-05-31T05:48:08;102619.27;;;15.27;45.93
47742;BME280;33504;52.066;6.096;2023-05-31T05:50:35;102621.58;;;15.22;45.88
47742;BME280;33504;52.066;6.096;2023-05-31T05:53:02;102619.91;;;15.08;45.72
47742;BME280;33504;52.066;6.096;2023-05-31T05:55:31;102618.99;;;15.23;45.65
47742;BME280;33504;52.066;6.096;2023-05-31T05:57:57;102614.75;;;15.52;45.70
47742;BME280;33504;52.066;6.096;2023-05-31T06:00:24;102615.26;;;15.43;45.81
47742;BME280;33504;52.066;6.096;2023-05-31T06:02:52;102615.85;;;15.35;45.55
47742;BME280;33504;52.066;6.096;2023-05-31T06:05:19;102613.32;;;15.58;45.90
47742;BME280;33504;52.066;6.096;2023-05-31T06:07:46;102615.79;;;15.83;45.41
47742;BME280;33504;52.066;6.096;2023-05-31T06:10:14;102611.93;;;15.70;45.25
47742;BME280;33504;52.066;6.096;2023-05-31T06:12:40;102607.11;;;15.84;45.22
47742;BME280;33504;52.066;6.096;2023-05-31T06:15:08;102609.20;;;15.98;44.90
47742;BME280;33504;52.066;6.096;2023-05-31T06:17:36;102608.47;;;15.94;45.22
47742;BME280;33504;52.066;6.096;2023-05-31T06:20:03;102606.63;;;16.03;44.99
47742;BME280;33504;52.066;6.096;2023-05-31T06:22:33;102605.63;;;16.28;44.60
47742;BME280;33504;52.066;6.096;2023-05-31T06:25:03;102603.02;;;16.36;44.80
47742;BME280;33504;52.066;6.096;2023-05-31T06:27:33;102606.75;;;16.51;44.44
47742;BME280;33504;52.066;6.096;2023-05-31T06:30:00;102606.10;;;16.49;44.39
47742;BME280;33504;52.066;6.096;2023-05-31T06:32:27;102606.63;;;16.53;44.24
47742;BME280;33504;52.066;6.096;2023-05-31T06:34:54;102603.39;;;16.73;44.49
47742;BME280;33504;52.066;6.096;2023-05-31T06:37:21;102605.64;;;16.83;44.31
47742;BME280;33504;52.066;6.096;2023-05-31T06:39:49;102604.56;;;16.94;44.07
47742;BME280;33504;52.066;6.096;2023-05-31T06:42:17;102609.14;;;17.05;43.83
47742;BME280;33504;52.066;6.096;2023-05-31T06:44:44;102609.64;;;17.27;43.52
47742;BME280;33504;52.066;6.096;2023-05-31T06:47:11;102608.08;;;17.36;43.03
47742;BME280;33504;52.066;6.096;2023-05-31T06:49:38;102604.22;;;17.60;43.50
47742;BME280;33504;52.066;6.096;2023-05-31T06:52:05;102602.25;;;17.95;42.82
47742;BME280;33504;52.066;6.096;2023-05-31T06:54:34;102605.44;;;17.61;42.69
47742;BME280;33504;52.066;6.096;2023-05-31T06:57:01;102605.85;;;17.80;42.70
47742;BME280;33504;52.066;6.096;2023-05-31T06:59:29;102607.06;;;18.35;41.99
47742;BME280;33504;52.066;6.096;2023-05-31T07:01:56;102609.58;;;18.20;42.07
47742;BME280;33504;52.066;6.096;2023-05-31T07:04:22;102606.01;;;18.08;41.73
47742;BME280;33504;52.066;6.096;2023-05-31T07:06:50;102609.48;;;18.38;41.23
47742;BME280;33504;52.066;6.096;2023-05-31T07:09:17;102611.80;;;18.35;41.51
47742;BME280;33504;52.066;6.096;2023-05-31T07:11:44;102608.36;;;18.68;41.18
47742;BME280;33504;52.066;6.096;2023-05-31T07:14:10;102607.77;;;18.77;41.14
47742;BME280;33504;52.066;6.096;2023-05-31T07:16:37;102609.58;;;19.27;40.56
47742;BME280;33504;52.066;6.096;2023-05-31T07:19:05;102604.86;;;18.79;39.94
47742;BME280;33504;52.066;6.096;2023-05-31T07:21:31;102603.64;;;19.05;39.78
47742;BME280;33504;52.066;6.096;2023-05-31T07:23:58;102599.13;;;19.47;39.05
47742;BME280;33504;52.066;6.096;2023-05-31T07:26:25;102596.70;;;19.71;39.24
47742;BME280;33504;52.066;6.096;2023-05-31T07:28:52;102595.52;;;19.78;39.06
47742;BME280;33504;52.066;6.096;2023-05-31T07:31:19;102593.38;;;20.12;38.37
47742;BME280;33504;52.066;6.096;2023-05-31T07:33:46;102595.98;;;19.95;37.62
47742;BME280;33504;52.066;6.096;2023-05-31T07:36:14;102590.50;;;20.57;37.65
47742;BME280;33504;52.066;6.096;2023-05-31T07:38:41;102593.10;;;20.83;37.38
47742;BME280;33504;52.066;6.096;2023-05-31T07:41:07;102593.09;;;20.69;37.54
47742;BME280;33504;52.066;6.096;2023-05-31T07:43:34;102595.15;;;20.92;36.91
47742;BME280;33504;52.066;6.096;2023-05-31T07:46:01;102596.90;;;21.07;36.92
47742;BME280;33504;52.066;6.096;2023-05-31T07:48:28;102588.80;;;21.01;35.94
47742;BME280;33504;52.066;6.096;2023-05-31T07:50:55;102585.85;;;21.30;35.83
47742;BME280;33504;52.066;6.096;2023-05-31T07:53:22;102584.40;;;21.02;35.62
47742;BME280;33504;52.066;6.096;2023-05-31T07:55:49;102582.58;;;20.91;36.33
47742;BME280;33504;52.066;6.096;2023-05-31T07:58:17;102582.83;;;21.44;35.80
47742;BME280;33504;52.066;6.096;2023-05-31T08:00:44;102583.89;;;21.54;35.35
47742;BME280;33504;52.066;6.096;2023-05-31T08:03:12;102580.85;;;21.77;35.20
47742;BME280;33504;52.066;6.096;2023-05-31T08:05:40;102578.66;;;21.74;35.25
47742;BME280;33504;52.066;6.096;2023-05-31T08:08:08;102578.14;;;21.91;35.32
47742;BME280;33504;52.066;6.096;2023-05-31T08:10:35;102580.52;;;21.98;34.59
47742;BME280;33504;52.066;6.096;2023-05-31T08:13:02;102577.85;;;22.28;34.14
47742;BME280;33504;52.066;6.096;2023-05-31T08:15:30;102575.19;;;22.18;34.34
47742;BME280;33504;52.066;6.096;2023-05-31T08:17:57;102574.30;;;22.74;33.46
47742;BME280;33504;52.066;6.096;2023-05-31T08:20:24;102572.84;;;22.80;33.72
47742;BME280;33504;52.066;6.096;2023-05-31T08:22:51;102569.85;;;22.51;34.10
47742;BME280;33504;52.066;6.096;2023-05-31T08:25:18;102573.40;;;22.90;33.91
47742;BME280;33504;52.066;6.096;2023-05-31T08:27:46;102570.07;;;23.20;33.32
47742;BME280;33504;52.066;6.096;2023-05-31T08:30:12;102565.60;;;23.46;32.87
47742;BME280;33504;52.066;6.096;2023-05-31T08:32:40;102564.79;;;23.28;32.95
47742;BME280;33504;52.066;6.096;2023-05-31T08:35:07;102562.03;;;23.08;33.01
47742;BME280;33504;52.066;6.096;2023-05-31T08:37:35;102557.35;;;23.61;32.47
47742;BME280;33504;52.066;6.096;2023-05-31T08:40:02;102555.85;;;23.73;32.52
47742;BME280;33504;52.066;6.096;2023-05-31T08:42:36;102552.88;;;24.10;32.08
47742;BME280;33504;52.066;6.096;2023-05-31T08:45:07;102553.61;;;23.90;32.17
47742;BME280;33504;52.066;6.096;2023-05-31T08:47:39;102551.56;;;24.19;31.82
47742;BME280;33504;52.066;6.096;2023-05-31T08:50:08;102553.83;;;24.27;31.85
47742;BME280;33504;52.066;6.096;2023-05-31T08:52:35;102550.49;;;23.90;31.33
47742;BME280;33504;52.066;6.096;2023-05-31T08:55:03;102548.62;;;24.24;31.30
47742;BME280;33504;52.066;6.096;2023-05-31T08:57:31;102545.69;;;24.59;30.57
47742;BME280;33504;52.066;6.096;2023-05-31T09:00:01;102542.15;;;24.70;30.66
47742;BME280;33504;52.066;6.096;2023-05-31T09:02:28;102543.89;;;24.77;30.70
47742;BME280;33504;52.066;6.096;2023-05-31T09:04:56;102539.07;;;24.90;30.48
47742;BME280;33504;52.066;6.096;2023-05-31T09:07:23;102538.09;;;25.13;30.08
47742;BME280;33504;52.066;6.096;2023-05-31T09:09:50;102540.17;;;25.60;30.13
47742;BME280;33504;52.066;6.096;2023-05-31T09:12:18;102540.72;;;25.07;29.65
47742;BME280;33504;52.066;6.096;2023-05-31T09:14:45;102536.17;;;25.36;28.54
47742;BME280;33504;52.066;6.096;2023-05-31T09:17:13;102538.21;;;25.42;28.98
47742;BME280;33504;52.066;6.096;2023-05-31T09:19:41;102535.38;;;25.99;29.63
47742;BME280;33504;52.066;6.096;2023-05-31T09:22:15;102534.82;;;25.70;29.05
47742;BME280;33504;52.066;6.096;2023-05-31T09:24:49;102530.66;;;25.96;27.66
47742;BME280;33504;52.066;6.096;2023-05-31T09:27:16;102527.14;;;25.81;28.89
47742;BME280;33504;52.066;6.096;2023-05-31T09:29:43;102529.45;;;26.47;28.46
47742;BME280;33504;52.066;6.096;2023-05-31T09:32:17;102527.73;;;26.54;28.04
47742;BME280;33504;52.066;6.096;2023-05-31T09:34:45;102525.51;;;26.60;27.88
47742;BME280;33504;52.066;6.096;2023-05-31T09:37:21;102522.23;;;26.54;27.28
47742;BME280;33504;52.066;6.096;2023-05-31T09:39:54;102520.15;;;27.42;27.86
47742;BME280;33504;52.066;6.096;2023-05-31T09:42:21;102517.43;;;27.06;26.86
47742;BME280;33504;52.066;6.096;2023-05-31T09:44:48;102515.39;;;26.56;26.80
47742;BME280;33504;52.066;6.096;2023-05-31T09:47:15;102515.41;;;27.03;27.16
47742;BME280;33504;52.066;6.096;2023-05-31T09:49:42;102512.01;;;27.11;27.14
47742;BME280;33504;52.066;6.096;2023-05-31T09:52:12;102510.79;;;27.06;27.48
47742;BME280;33504;52.066;6.096;2023-05-31T09:54:39;102506.99;;;27.25;26.94
47742;BME280;33504;52.066;6.096;2023-05-31T09:57:28;102501.61;;;27.56;26.13
47742;BME280;33504;52.066;6.096;2023-05-31T09:59:56;102500.77;;;27.38;25.76
47742;BME280;33504;52.066;6.096;2023-05-31T10:02:24;102499.09;;;27.05;26.13
47742;BME280;33504;52.066;6.096;2023-05-31T10:04:53;102504.25;;;26.91;25.91
47742;BME280;33504;52.066;6.096;2023-05-31T10:07:20;102502.57;;;27.91;26.12
47742;BME280;33504;52.066;6.096;2023-05-31T10:09:49;102500.35;;;27.85;26.01
47742;BME280;33504;52.066;6.096;2023-05-31T10:12:18;102491.22;;;27.66;26.08
47742;BME280;33504;52.066;6.096;2023-05-31T10:14:56;102489.72;;;27.66;25.93
47742;BME280;33504;52.066;6.096;2023-05-31T10:17:29;102492.78;;;27.67;25.35
47742;BME280;33504;52.066;6.096;2023-05-31T10:20:03;102485.49;;;28.08;25.24
47742;BME280;33504;52.066;6.096;2023-05-31T10:22:33;102479.02;;;28.22;25.23
47742;BME280;33504;52.066;6.096;2023-05-31T10:25:07;102467.94;;;28.26;25.39
47742;BME280;33504;52.066;6.096;2023-05-31T10:27:37;102474.96;;;28.35;24.65
47742;BME280;33504;52.066;6.096;2023-05-31T10:30:09;102470.88;;;28.87;24.38
47742;BME280;33504;52.066;6.096;2023-05-31T10:32:41;102467.66;;;29.05;24.40
47742;BME280;33504;52.066;6.096;2023-05-31T10:35:10;102468.14;;;28.14;22.79
47742;BME280;33504;52.066;6.096;2023-05-31T10:37:41;102466.44;;;29.09;23.87
47742;BME280;33504;52.066;6.096;2023-05-31T10:40:13;102463.77;;;28.66;23.96
47742;BME280;33504;52.066;6.096;2023-05-31T10:42:45;102466.47;;;29.11;23.32
47742;BME280;33504;52.066;6.096;2023-05-31T10:45:20;102462.17;;;28.66;22.50
47742;BME280;33504;52.066;6.096;2023-05-31T10:47:55;102458.71;;;28.96;21.95
47742;BME280;33504;52.066;6.096;2023-05-31T10:50:23;102450.24;;;29.31;22.39
47742;BME280;33504;52.066;6.096;2023-05-31T10:52:51;102448.94;;;28.44;23.00
47742;BME280;33504;52.066;6.096;2023-05-31T10:55:21;102446.80;;;29.08;22.59
47742;BME280;33504;52.066;6.096;2023-05-31T10:57:52;102442.79;;;29.51;22.30
47742;BME280;33504;52.066;6.096;2023-05-31T11:00:19;102448.81;;;29.57;22.71
47742;BME280;33504;52.066;6.096;2023-05-31T11:02:48;102439.52;;;28.39;22.52
47742;BME280;33504;52.066;6.096;2023-05-31T11:05:19;102443.64;;;29.31;23.24
47742;BME280;33504;52.066;6.096;2023-05-31T11:07:46;102441.29;;;29.05;22.80
47742;BME280;33504;52.066;6.096;2023-05-31T11:10:25;102443.34;;;29.88;22.34
47742;BME280;33504;52.066;6.096;2023-05-31T11:12:56;102433.44;;;29.03;22.02
47742;BME280;33504;52.066;6.096;2023-05-31T11:15:38;102432.79;;;30.05;21.55
47742;BME280;33504;52.066;6.096;2023-05-31T11:18:07;102437.99;;;29.83;21.70
47742;BME280;33504;52.066;6.096;2023-05-31T11:20:35;102429.99;;;29.81;21.57
47742;BME280;33504;52.066;6.096;2023-05-31T11:23:35;102426.94;;;30.77;21.09
47742;BME280;33504;52.066;6.096;2023-05-31T11:26:11;102429.57;;;29.56;21.01
47742;BME280;33504;52.066;6.096;2023-05-31T11:28:59;102422.66;;;30.10;21.56
47742;BME280;33504;52.066;6.096;2023-05-31T11:31:57;102423.17;;;30.67;21.14
47742;BME280;33504;52.066;6.096;2023-05-31T11:34:25;102423.45;;;30.07;20.48
47742;BME280;33504;52.066;6.096;2023-05-31T11:36:55;102416.53;;;30.25;20.27
47742;BME280;33504;52.066;6.096;2023-05-31T11:39:23;102415.49;;;29.33;21.49
47742;BME280;33504;52.066;6.096;2023-05-31T11:41:50;102415.90;;;29.78;21.27
47742;BME280;33504;52.066;6.096;2023-05-31T11:44:21;102410.78;;;29.65;21.63
47742;BME280;33504;52.066;6.096;2023-05-31T11:46:55;102408.60;;;30.39;21.21
47742;BME280;33504;52.066;6.096;2023-05-31T11:49:22;102406.56;;;29.57;21.19
47742;BME280;33504;52.066;6.096;2023-05-31T11:51:50;102402.50;;;29.76;20.48
47742;BME280;33504;52.066;6.096;2023-05-31T11:54:17;102401.41;;;29.67;20.87
47742;BME280;33504;52.066;6.096;2023-05-31T11:56:44;102397.24;;;30.13;20.88
47742;BME280;33504;52.066;6.096;2023-05-31T11:59:11;102391.31;;;30.78;20.65
47742;BME280;33504;52.066;6.096;2023-05-31T12:01:38;102386.92;;;31.27;20.68
47742;BME280;33504;52.066;6.096;2023-05-31T12:04:05;102392.58;;;31.02;20.40
47742;BME280;33504;52.066;6.096;2023-05-31T12:06:32;102389.73;;;30.45;20.62
47742;BME280;33504;52.066;6.096;2023-05-31T12:09:00;102383.39;;;31.09;21.01
47742;BME280;33504;52.066;6.096;2023-05-31T12:11:28;102380.94;;;30.88;20.40
47742;BME280;33504;52.066;6.096;2023-05-31T12:13:55;102382.07;;;31.18;19.97
47742;BME280;33504;52.066;6.096;2023-05-31T12:16:22;102380.36;;;31.18;19.63
47742;BME280;33504;52.066;6.096;2023-05-31T12:18:50;102374.77;;;31.28;19.63
47742;BME280;33504;52.066;6.096;2023-05-31T12:21:17;102365.84;;;31.05;20.44
47742;BME280;33504;52.066;6.096;2023-05-31T12:23:52;102366.67;;;31.75;20.04
47742;BME280;33504;52.066;6.096;2023-05-31T12:26:19;102362.94;;;31.64;19.97
47742;BME280;33504;52.066;6.096;2023-05-31T12:28:47;102355.42;;;31.65;20.43
47742;BME280;33504;52.066;6.096;2023-05-31T12:31:20;102354.73;;;31.43;20.68
47742;BME280;33504;52.066;6.096;2023-05-31T12:33:52;102345.27;;;31.77;20.20
47742;BME280;33504;52.066;6.096;2023-05-31T12:36:18;102344.93;;;31.39;19.39
47742;BME280;33504;52.066;6.096;2023-05-31T12:38:46;102338.95;;;31.29;20.19
47742;BME280;33504;52.066;6.096;2023-05-31T12:41:20;102336.58;;;32.01;20.55
47742;BME280;33504;52.066;6.096;2023-05-31T12:43:47;102338.40;;;32.19;20.19
47742;BME280;33504;52.066;6.096;2023-05-31T12:46:16;102335.79;;;32.44;19.85
47742;BME280;33504;52.066;6.096;2023-05-31T12:48:46;102338.40;;;32.86;19.75
47742;BME280;33504;52.066;6.096;2023-05-31T12:51:13;102332.33;;;32.36;19.42
47742;BME280;33504;52.066;6.096;2023-05-31T12:53:46;102332.86;;;31.93;18.95
47742;BME280;33504;52.066;6.096;2023-05-31T12:56:13;102334.76;;;31.92;19.22